Time;durP1;ratioP1;P1;durP2;ratioP2;P2;SDS_P1;SDS_P2;PMS_P1;PMS_P2;Temp;Humidity;BMP_temperature;BMP_pressure;BME280_temperature;BME280_humidity;BME280_pressure;Samples;Min_cycle;Max_cycle;Signal;HPM_P1;HPM_P2
2023/08/25 00:01:22;;;;;;;5.63;2.28;;;;;;;;;;6167197;23;20200;-92
2023/08/25 00:04:27;;;;;;;7.20;2.33;;;;;;;;;;6165764;23;20293;-89
2023/08/25 00:07:33;;;;;;;5.85;2.30;;;;;;;;;;6166317;23;20160;-90
2023/08/25 00:10:39;;;;;;;10.05;2.50;;;;;;;;;;6168373;23;20613;-89
2023/08/25 00:13:44;;;;;;;5.85;2.35;;;;;;;;;;6166438;23;20497;-90
2023/08/25 00:16:50;;;;;;;9.80;2.75;;;;;;;;;;6149601;23;20193;-92
2023/08/25 00:19:55;;;;;;;11.45;2.60;;;;;;;;;;6148855;23;20192;-90
2023/08/25 00:23:00;;;;;;;6.72;3.15;;;;;;;;;;6147733;23;20170;-91
2023/08/25 00:26:08;;;;;;;7.28;2.90;;;;;;;;;;6146904;23;20180;-88
2023/08/25 00:29:13;;;;;;;8.75;2.53;;;;;;;;;;6148348;23;20196;-88
2023/08/25 00:32:17;;;;;;;10.98;2.78;;;;;;;;;;6149163;23;20172;-90
2023/08/25 00:35:23;;;;;;;13.02;4.10;;;;;;;;;;6149872;23;20172;-91
2023/08/25 00:38:28;;;;;;;8.70;2.60;;;;;;;;;;6149174;23;20185;-89
2023/08/25 00:41:35;;;;;;;10.18;2.67;;;;;;;;;;6150779;23;20196;-92
2023/08/25 00:44:40;;;;;;;7.78;2.75;;;;;;;;;;6151012;23;20160;-91
2023/08/25 00:47:45;;;;;;;8.80;2.20;;;;;;;;;;6150187;23;20646;-86
2023/08/25 00:50:50;;;;;;;6.10;2.35;;;;;;;;;;6150765;23;20172;-90
2023/08/25 00:53:56;;;;;;;6.07;2.65;;;;;;;;;;6150076;23;20632;-91
2023/08/25 00:57:03;;;;;;;8.10;2.80;;;;;;;;;;6152041;23;20152;-89
2023/08/25 01:00:11;;;;;;;8.00;2.40;;;;;;;;;;6151225;23;20199;-89
2023/08/25 01:03:16;;;;;;;7.03;2.75;;;;;;;;;;6152375;23;20148;-88
2023/08/25 01:06:21;;;;;;;6.88;2.10;;;;;;;;;;6152685;23;20169;-91
2023/08/25 01:09:27;;;;;;;5.68;2.65;;;;;;;;;;6152594;23;20156;-90
2023/08/25 01:12:51;;;;;;;10.40;3.67;;;;;;;;;;6152923;23;20152;-89
2023/08/25 01:15:56;;;;;;;7.72;2.55;;;;;;;;;;6166661;23;20260;-90
2023/08/25 01:19:06;;;;;;;5.03;3.00;;;;;;;;;;6188074;23;20200;-91
2023/08/25 01:22:14;;;;;;;10.02;2.85;;;;;;;;;;6170198;23;20505;-91
2023/08/25 01:25:26;;;;;;;7.95;2.83;;;;;;;;;;6168729;23;20164;-91
2023/08/25 01:28:31;;;;;;;4.78;2.47;;;;;;;;;;6169331;23;20601;-93
2023/08/25 01:31:36;;;;;;;8.48;3.25;;;;;;;;;;6168902;23;20175;-91
2023/08/25 01:34:41;;;;;;;6.35;2.58;;;;;;;;;;6169054;23;20173;-90
2023/08/25 01:37:49;;;;;;;6.70;2.80;;;;;;;;;;6170102;23;20156;-92
2023/08/25 01:41:00;;;;;;;8.23;2.80;;;;;;;;;;6168247;23;20236;-90
2023/08/25 01:44:06;;;;;;;6.57;2.42;;;;;;;;;;6187069;23;20163;-93
2023/08/25 01:47:14;;;;;;;10.50;2.72;;;;;;;;;;6168175;23;20177;-91
2023/08/25 01:50:20;;;;;;;7.57;2.95;;;;;;;;;;6169490;23;20171;-90
2023/08/25 01:53:26;;;;;;;8.40;3.28;;;;;;;;;;6186361;23;20169;-90
2023/08/25 01:56:32;;;;;;;9.57;3.25;;;;;;;;;;6166892;23;20164;-90
2023/08/25 01:59:38;;;;;;;15.05;3.45;;;;;;;;;;6166922;23;20165;-90
2023/08/25 02:02:43;;;;;;;10.25;3.40;;;;;;;;;;6168227;23;20243;-92
2023/08/25 02:05:49;;;;;;;10.15;3.20;;;;;;;;;;6168403;23;20239;-91
2023/08/25 02:08:54;;;;;;;9.18;3.00;;;;;;;;;;6167969;23;20249;-90
2023/08/25 02:12:00;;;;;;;10.27;3.30;;;;;;;;;;6184273;23;20616;-91
2023/08/25 02:15:06;;;;;;;6.32;3.35;;;;;;;;;;6168042;23;20171;-92
2023/08/25 02:18:12;;;;;;;7.53;3.70;;;;;;;;;;6168681;23;20244;-92
2023/08/25 02:21:17;;;;;;;7.97;3.85;;;;;;;;;;6167840;23;20221;-91
2023/08/25 02:24:22;;;;;;;12.57;4.45;;;;;;;;;;6168677;23;20156;-92
2023/08/25 02:27:30;;;;;;;12.82;4.40;;;;;;;;;;6186740;23;20205;-92
2023/08/25 02:30:35;;;;;;;12.15;5.13;;;;;;;;;;6169034;23;20177;-94
2023/08/25 02:33:40;;;;;;;15.02;6.07;;;;;;;;;;6167283;23;20552;-90
2023/08/25 02:36:45;;;;;;;16.33;5.97;;;;;;;;;;6184830;23;20184;-93
2023/08/25 02:39:51;;;;;;;23.08;7.80;;;;;;;;;;6167752;23;20168;-91
2023/08/25 02:42:57;;;;;;;30.13;11.38;;;;;;;;;;6168241;23;20667;-94
2023/08/25 02:46:03;;;;;;;28.45;10.70;;;;;;;;;;6169063;23;20177;-90
2023/08/25 02:49:09;;;;;;;23.65;9.55;;;;;;;;;;6166200;23;20173;-90
2023/08/25 02:52:14;;;;;;;21.83;8.90;;;;;;;;;;6167538;23;20157;-92
2023/08/25 02:55:20;;;;;;;27.45;8.57;;;;;;;;;;6165575;23;20601;-90
2023/08/25 02:58:26;;;;;;;18.98;7.40;;;;;;;;;;6166563;23;20148;-93
2023/08/25 03:01:31;;;;;;;15.02;6.82;;;;;;;;;;6182272;23;20195;-91
2023/08/25 03:04:36;;;;;;;13.15;5.80;;;;;;;;;;6165275;23;20157;-90
2023/08/25 03:07:41;;;;;;;13.30;5.38;;;;;;;;;;6166796;23;20168;-92
2023/08/25 03:10:47;;;;;;;13.45;5.40;;;;;;;;;;6166980;23;20605;-92
2023/08/25 03:13:55;;;;;;;12.98;5.30;;;;;;;;;;6168094;23;20169;-92
2023/08/25 03:17:00;;;;;;;11.25;4.82;;;;;;;;;;6166453;23;20164;-91
2023/08/25 03:20:06;;;;;;;17.08;5.30;;;;;;;;;;6149173;23;20149;-90
2023/08/25 03:23:11;;;;;;;14.27;5.07;;;;;;;;;;6149539;23;20172;-90
2023/08/25 03:26:16;;;;;;;13.40;4.60;;;;;;;;;;6166196;23;20168;-90
2023/08/25 03:29:22;;;;;;;11.55;4.75;;;;;;;;;;6147715;23;20237;-90
2023/08/25 03:32:27;;;;;;;13.18;4.07;;;;;;;;;;6149545;23;20184;-93
2023/08/25 03:35:34;;;;;;;10.10;4.20;;;;;;;;;;6148391;23;20265;-90
2023/08/25 03:38:39;;;;;;;10.98;3.97;;;;;;;;;;6148056;23;20164;-90
2023/08/25 03:41:44;;;;;;;9.68;4.28;;;;;;;;;;6148952;23;20233;-93
2023/08/25 03:44:51;;;;;;;8.45;4.38;;;;;;;;;;6148979;23;20600;-91
2023/08/25 03:47:56;;;;;;;15.00;4.72;;;;;;;;;;6149252;23;20168;-90
2023/08/25 03:51:02;;;;;;;12.02;3.85;;;;;;;;;;6148574;23;20608;-91
2023/08/25 03:54:07;;;;;;;13.40;4.07;;;;;;;;;;6150050;23;20164;-90
2023/08/25 03:57:12;;;;;;;11.85;4.22;;;;;;;;;;6151267;23;20165;-91
2023/08/25 04:00:22;;;;;;;12.25;3.38;;;;;;;;;;6168271;23;20228;-90
2023/08/25 04:03:28;;;;;;;9.38;3.60;;;;;;;;;;6167605;23;20240;-89
2023/08/25 04:06:33;;;;;;;10.18;4.60;;;;;;;;;;6149421;23;20160;-92
2023/08/25 04:09:41;;;;;;;8.15;3.22;;;;;;;;;;6149620;23;20180;-91
2023/08/25 04:12:47;;;;;;;9.98;3.10;;;;;;;;;;6149886;23;20168;-90
2023/08/25 04:15:57;;;;;;;9.07;3.35;;;;;;;;;;6149962;23;20192;-90
2023/08/25 04:19:02;;;;;;;7.28;3.28;;;;;;;;;;6147164;23;20224;-90
2023/08/25 04:22:09;;;;;;;7.57;3.38;;;;;;;;;;6147784;23;20172;-89
2023/08/25 04:25:15;;;;;;;10.88;3.35;;;;;;;;;;6150277;23;20164;-92
2023/08/25 04:28:21;;;;;;;6.85;3.22;;;;;;;;;;6152208;23;20612;-92
2023/08/25 04:31:27;;;;;;;8.88;2.90;;;;;;;;;;6152348;23;20176;-90
2023/08/25 04:34:36;;;;;;;7.60;3.20;;;;;;;;;;6151005;23;20173;-88
2023/08/25 04:37:44;;;;;;;8.88;3.65;;;;;;;;;;6153894;23;20164;-88
2023/08/25 04:40:49;;;;;;;12.15;3.17;;;;;;;;;;6153719;23;20395;-87
2023/08/25 04:43:55;;;;;;;15.23;3.50;;;;;;;;;;6167564;23;20164;-89
2023/08/25 04:47:02;;;;;;;8.35;3.47;;;;;;;;;;6148429;23;20169;-90
2023/08/25 04:50:08;;;;;;;11.57;3.78;;;;;;;;;;6149582;23;20164;-91
2023/08/25 04:53:13;;;;;;;10.75;3.53;;;;;;;;;;6150199;23;20244;-86
2023/08/25 04:56:19;;;;;;;13.07;3.83;;;;;;;;;;6150671;23;20163;-90
2023/08/25 04:59:24;;;;;;;10.88;3.80;;;;;;;;;;6167704;23;20172;-90
2023/08/25 05:02:32;;;;;;;8.85;3.20;;;;;;;;;;6150608;23;20204;-89
2023/08/25 05:05:38;;;;;;;7.07;3.45;;;;;;;;;;6149134;23;20152;-90
2023/08/25 05:08:44;;;;;;;11.30;3.55;;;;;;;;;;6147526;23;20169;-90
2023/08/25 05:11:53;;;;;;;9.90;3.85;;;;;;;;;;6150847;23;20204;-91
2023/08/25 05:14:58;;;;;;;8.45;3.17;;;;;;;;;;6152767;23;20189;-90
2023/08/25 05:18:06;;;;;;;13.40;3.35;;;;;;;;;;6150956;23;20234;-89
2023/08/25 05:21:13;;;;;;;8.68;3.60;;;;;;;;;;6168730;23;20256;-90
2023/08/25 05:24:19;;;;;;;8.00;3.60;;;;;;;;;;6149681;23;20324;-89
2023/08/25 05:27:24;;;;;;;15.40;3.60;;;;;;;;;;6148798;23;20172;-88
2023/08/25 05:30:31;;;;;;;9.32;3.55;;;;;;;;;;6149473;23;20165;-89
2023/08/25 05:33:38;;;;;;;8.88;3.45;;;;;;;;;;6164765;23;20172;-86
2023/08/25 05:37:13;;;;;;;9.77;3.33;;;;;;;;;;6166329;23;20181;-87
2023/08/25 05:40:18;;;;;;;9.82;3.55;;;;;;;;;;6148566;23;20173;-89
2023/08/25 05:43:26;;;;;;;7.70;3.53;;;;;;;;;;6150484;23;20164;-90
2023/08/25 05:46:32;;;;;;;8.55;3.00;;;;;;;;;;6152179;23;20168;-90
2023/08/25 05:49:39;;;;;;;13.07;3.15;;;;;;;;;;6150303;23;20168;-89
2023/08/25 05:52:45;;;;;;;5.25;2.50;;;;;;;;;;6167478;23;20165;-90
2023/08/25 05:55:51;;;;;;;12.32;2.70;;;;;;;;;;6149326;23;20252;-90
2023/08/25 05:58:57;;;;;;;11.48;3.38;;;;;;;;;;6167671;23;20148;-90
2023/08/25 06:02:02;;;;;;;8.35;3.60;;;;;;;;;;6153253;23;20199;-91
2023/08/25 06:05:09;;;;;;;8.40;3.60;;;;;;;;;;6153238;23;20173;-89
2023/08/25 06:08:14;;;;;;;8.10;3.90;;;;;;;;;;6152001;23;20168;-91
2023/08/25 06:11:19;;;;;;;7.63;3.83;;;;;;;;;;6152925;23;20163;-91
2023/08/25 06:14:24;;;;;;;10.43;3.20;;;;;;;;;;6153000;23;20231;-91
2023/08/25 06:17:29;;;;;;;10.50;2.80;;;;;;;;;;6152441;23;20169;-89
2023/08/25 06:20:36;;;;;;;7.95;2.65;;;;;;;;;;6154158;23;20156;-89
2023/08/25 06:23:43;;;;;;;9.90;2.90;;;;;;;;;;6160220;23;20177;-88
2023/08/25 06:26:53;;;;;;;7.47;2.80;;;;;;;;;;6157741;23;20241;-90
2023/08/25 06:33:29;;;;;;;5.53;2.65;;;;;;;;;;6155977;23;20161;-89
2023/08/25 06:36:40;;;;;;;4.88;2.40;;;;;;;;;;6156741;23;20168;-89
2023/08/25 06:39:47;;;;;;;5.35;2.42;;;;;;;;;;6153715;23;20164;-92
2023/08/25 06:42:53;;;;;;;9.70;2.30;;;;;;;;;;6151780;23;20259;-92
2023/08/25 06:45:58;;;;;;;5.97;2.60;;;;;;;;;;6148984;23;20152;-89
2023/08/25 06:49:03;;;;;;;8.40;3.15;;;;;;;;;;6148512;23;20164;-93
2023/08/25 06:52:09;;;;;;;7.28;2.90;;;;;;;;;;6151522;23;20244;-90
2023/08/25 06:55:17;;;;;;;6.28;3.00;;;;;;;;;;6149512;23;20164;-90
2023/08/25 06:58:22;;;;;;;9.93;3.25;;;;;;;;;;6147570;23;20167;-88
2023/08/25 07:01:27;;;;;;;9.13;3.63;;;;;;;;;;6149616;23;20171;-89
2023/08/25 07:04:32;;;;;;;9.38;3.28;;;;;;;;;;6151004;23;20169;-89
2023/08/25 07:07:38;;;;;;;8.02;3.13;;;;;;;;;;6167114;23;20229;-90
2023/08/25 07:10:46;;;;;;;9.20;3.28;;;;;;;;;;6166316;23;20165;-90
2023/08/25 07:13:51;;;;;;;6.40;2.88;;;;;;;;;;6151058;23;20168;-90
2023/08/25 07:16:56;;;;;;;6.90;2.53;;;;;;;;;;6150611;23;20168;-89
2023/08/25 07:20:02;;;;;;;7.18;2.83;;;;;;;;;;6150595;23;20179;-92
2023/08/25 07:23:09;;;;;;;6.85;2.80;;;;;;;;;;6149402;23;20291;-91
2023/08/25 07:26:15;;;;;;;8.90;3.00;;;;;;;;;;6151649;23;20180;-89
2023/08/25 07:29:20;;;;;;;15.38;3.40;;;;;;;;;;6147774;23;20165;-86
2023/08/25 07:32:29;;;;;;;11.90;2.90;;;;;;;;;;6149667;23;20502;-89
2023/08/25 07:35:36;;;;;;;9.48;3.35;;;;;;;;;;6164237;23;20169;-90
2023/08/25 07:38:43;;;;;;;6.82;3.03;;;;;;;;;;6150502;23;20168;-91
2023/08/25 07:41:48;;;;;;;6.43;2.90;;;;;;;;;;6165757;23;20590;-90
2023/08/25 07:44:53;;;;;;;9.75;3.83;;;;;;;;;;6148853;23;20188;-90
2023/08/25 07:47:59;;;;;;;11.43;3.33;;;;;;;;;;6149267;23;20216;-89
2023/08/25 07:51:04;;;;;;;12.35;3.03;;;;;;;;;;6149217;23;20628;-93
2023/08/25 07:54:11;;;;;;;9.85;2.88;;;;;;;;;;6148329;23;20176;-90
2023/08/25 07:57:16;;;;;;;10.68;3.25;;;;;;;;;;6165126;23;20589;-93
2023/08/25 08:00:22;;;;;;;8.75;3.17;;;;;;;;;;6172778;23;20169;-92
2023/08/25 08:03:27;;;;;;;10.13;3.72;;;;;;;;;;6144980;23;20328;-93
2023/08/25 08:06:33;;;;;;;8.40;3.13;;;;;;;;;;6167692;23;20244;-92
2023/08/25 08:09:39;;;;;;;9.85;3.38;;;;;;;;;;6149687;23;20407;-91
2023/08/25 08:12:44;;;;;;;7.35;2.95;;;;;;;;;;6148446;23;20260;-93
2023/08/25 08:15:49;;;;;;;7.63;2.97;;;;;;;;;;6149771;23;20175;-90
2023/08/25 08:22:13;;;;;;;9.45;3.63;;;;;;;;;;6148210;23;20184;-93
2023/08/25 08:25:20;;;;;;;5.60;3.10;;;;;;;;;;6147037;23;20612;-92
2023/08/25 08:28:25;;;;;;;11.55;4.22;;;;;;;;;;6147219;23;20536;-91
2023/08/25 08:31:30;;;;;;;10.82;2.75;;;;;;;;;;6163549;23;20251;-90
2023/08/25 08:34:35;;;;;;;7.38;2.92;;;;;;;;;;6148376;23;20172;-90
2023/08/25 08:37:41;;;;;;;8.07;2.88;;;;;;;;;;6147962;23;20175;-89
2023/08/25 08:40:49;;;;;;;9.77;3.38;;;;;;;;;;6148218;23;20168;-90
2023/08/25 08:43:56;;;;;;;7.10;2.95;;;;;;;;;;6147412;23;20651;-89
2023/08/25 08:47:03;;;;;;;8.77;2.75;;;;;;;;;;6165360;23;20172;-91
2023/08/25 08:50:10;;;;;;;6.35;2.80;;;;;;;;;;6145395;23;20569;-91
2023/08/25 08:53:16;;;;;;;7.68;2.92;;;;;;;;;;6147825;23;20176;-90
2023/08/25 08:56:23;;;;;;;6.82;2.70;;;;;;;;;;6148066;23;20491;-92
2023/08/25 08:59:28;;;;;;;10.23;2.67;;;;;;;;;;6147018;23;20175;-92
2023/08/25 09:02:35;;;;;;;6.15;2.70;;;;;;;;;;6152240;23;20194;-92
2023/08/25 09:05:42;;;;;;;7.55;3.30;;;;;;;;;;6168552;23;20171;-91
2023/08/25 09:08:48;;;;;;;7.55;3.05;;;;;;;;;;6149606;23;20284;-91
2023/08/25 09:11:57;;;;;;;10.88;3.72;;;;;;;;;;6148113;23;20163;-91
2023/08/25 09:15:03;;;;;;;9.25;3.20;;;;;;;;;;6155338;23;20263;-93
2023/08/25 09:18:09;;;;;;;11.63;3.33;;;;;;;;;;6153152;23;20168;-90
2023/08/25 09:21:20;;;;;;;7.03;2.40;;;;;;;;;;6155219;23;20207;-92
2023/08/25 09:24:25;;;;;;;8.27;2.83;;;;;;;;;;6155556;23;20296;-92
2023/08/25 09:27:33;;;;;;;9.93;2.75;;;;;;;;;;6151031;23;20167;-89
2023/08/25 09:30:38;;;;;;;6.85;2.33;;;;;;;;;;6168753;23;20168;-91
2023/08/25 09:33:43;;;;;;;8.23;2.33;;;;;;;;;;6173065;23;20176;-92
2023/08/25 09:36:52;;;;;;;7.03;2.40;;;;;;;;;;6151152;23;20171;-91
2023/08/25 09:40:02;;;;;;;5.70;2.10;;;;;;;;;;6152330;23;20160;-89
2023/08/25 09:43:13;;;;;;;6.38;2.15;;;;;;;;;;6151573;23;20186;-91
2023/08/25 09:46:19;;;;;;;4.53;1.90;;;;;;;;;;6153022;23;20187;-95
2023/08/25 09:49:30;;;;;;;6.95;2.53;;;;;;;;;;6153067;23;20195;-89
2023/08/25 09:52:36;;;;;;;8.18;2.17;;;;;;;;;;6150792;23;20168;-91
2023/08/25 09:55:41;;;;;;;8.68;2.13;;;;;;;;;;6152737;23;20278;-91
2023/08/25 09:58:53;;;;;;;8.43;2.50;;;;;;;;;;6150507;23;20241;-91
2023/08/25 10:01:58;;;;;;;7.15;2.58;;;;;;;;;;6151027;23;20172;-91
2023/08/25 10:05:04;;;;;;;7.90;2.40;;;;;;;;;;6151638;23;20777;-91
2023/08/25 10:08:10;;;;;;;8.27;2.20;;;;;;;;;;6154132;23;20200;-89
2023/08/25 10:11:16;;;;;;;7.13;2.38;;;;;;;;;;6150479;23;20193;-90
2023/08/25 10:14:24;;;;;;;5.07;2.10;;;;;;;;;;6153961;23;20191;-93
2023/08/25 10:17:30;;;;;;;6.65;2.35;;;;;;;;;;6151440;23;20151;-91
2023/08/25 10:20:36;;;;;;;5.90;2.20;;;;;;;;;;6150396;23;20188;-91
2023/08/25 10:23:41;;;;;;;10.25;2.60;;;;;;;;;;6150881;23;20195;-92
2023/08/25 10:26:47;;;;;;;8.25;2.22;;;;;;;;;;6150603;23;20208;-90
2023/08/25 10:29:53;;;;;;;8.60;2.63;;;;;;;;;;6150889;23;20220;-91
2023/08/25 10:33:03;;;;;;;7.53;2.60;;;;;;;;;;6149527;23;20630;-93
2023/08/25 10:36:08;;;;;;;5.30;2.40;;;;;;;;;;6151341;23;20208;-92
2023/08/25 10:39:13;;;;;;;9.30;2.25;;;;;;;;;;6153309;23;20173;-91
2023/08/25 10:42:27;;;;;;;12.55;4.20;;;;;;;;;;6156734;23;20163;-89
2023/08/25 10:45:37;;;;;;;8.55;2.83;;;;;;;;;;6159363;23;20168;-91
2023/08/25 10:48:43;;;;;;;8.57;3.22;;;;;;;;;;6156119;23;20168;-92
2023/08/25 10:51:48;;;;;;;6.20;2.45;;;;;;;;;;6174570;23;20172;-90
2023/08/25 10:54:53;;;;;;;9.50;2.60;;;;;;;;;;6172960;23;20188;-89
2023/08/25 10:58:08;;;;;;;5.78;2.60;;;;;;;;;;6156448;23;20243;-90
2023/08/25 11:01:28;;;;;;;10.05;2.88;;;;;;;;;;6156252;23;20659;-90
2023/08/25 11:04:36;;;;;;;8.05;2.40;;;;;;;;;;6190157;23;20206;-89
2023/08/25 11:07:45;;;;;;;7.47;2.72;;;;;;;;;;6186208;23;20688;-90
2023/08/25 11:11:09;;;;;;;10.60;2.47;;;;;;;;;;6186667;23;20171;-90
2023/08/25 11:14:14;;;;;;;5.88;2.30;;;;;;;;;;6203002;23;20179;-90
2023/08/25 11:17:20;;;;;;;8.75;2.95;;;;;;;;;;6186754;23;20167;-91
2023/08/25 11:20:28;;;;;;;7.15;2.65;;;;;;;;;;6185801;23;20167;-89
2023/08/25 11:23:37;;;;;;;7.03;2.50;;;;;;;;;;6186521;23;20194;-91
2023/08/25 11:26:42;;;;;;;11.35;2.80;;;;;;;;;;6203921;23;20167;-89
2023/08/25 11:29:49;;;;;;;7.68;2.20;;;;;;;;;;6187256;23;20215;-90
2023/08/25 11:32:54;;;;;;;6.78;2.75;;;;;;;;;;6186395;23;20225;-92
2023/08/25 11:36:02;;;;;;;9.98;3.35;;;;;;;;;;6185571;23;20218;-90
2023/08/25 11:39:16;;;;;;;5.88;2.70;;;;;;;;;;6185522;23;20155;-92
2023/08/25 11:42:22;;;;;;;6.43;2.20;;;;;;;;;;6184465;23;20175;-90
2023/08/25 11:45:28;;;;;;;5.38;2.17;;;;;;;;;;6185047;23;20167;-93
2023/08/25 11:48:35;;;;;;;7.10;2.28;;;;;;;;;;6185365;23;20174;-88
2023/08/25 11:51:42;;;;;;;5.03;2.42;;;;;;;;;;6184902;23;20150;-90
2023/08/25 11:54:48;;;;;;;5.45;2.30;;;;;;;;;;6186256;23;20171;-88
2023/08/25 11:57:54;;;;;;;9.38;2.60;;;;;;;;;;6186630;23;20211;-89
2023/08/25 12:01:06;;;;;;;3.83;2.30;;;;;;;;;;6169920;23;20171;-88
2023/08/25 12:07:42;;;;;;;7.55;2.47;;;;;;;;;;6190032;23;20167;-92
2023/08/25 12:10:48;;;;;;;7.18;2.25;;;;;;;;;;6185811;23;20167;-89
2023/08/25 12:13:53;;;;;;;5.32;2.53;;;;;;;;;;6184653;23;20305;-91
2023/08/25 12:16:58;;;;;;;8.93;2.40;;;;;;;;;;6185887;23;20191;-92
2023/08/25 12:20:13;;;;;;;5.75;2.60;;;;;;;;;;6185341;23;20259;-90
2023/08/25 12:23:22;;;;;;;4.03;2.45;;;;;;;;;;6185797;23;20195;-90
2023/08/25 12:26:27;;;;;;;6.35;2.50;;;;;;;;;;6181654;23;20167;-92
2023/08/25 12:29:33;;;;;;;6.93;2.80;;;;;;;;;;6181601;23;20178;-91
2023/08/25 12:32:38;;;;;;;3.92;2.42;;;;;;;;;;6181967;23;20171;-90
2023/08/25 12:35:43;;;;;;;6.35;2.60;;;;;;;;;;6181344;23;20219;-92
2023/08/25 12:38:50;;;;;;;10.60;3.20;;;;;;;;;;6179014;23;20158;-91
2023/08/25 12:41:55;;;;;;;5.07;2.50;;;;;;;;;;6181185;23;20552;-90
2023/08/25 12:45:01;;;;;;;7.68;2.47;;;;;;;;;;6178333;23;20203;-90
2023/08/25 12:48:07;;;;;;;4.10;2.25;;;;;;;;;;6180792;23;20211;-91
2023/08/25 12:51:12;;;;;;;5.15;2.40;;;;;;;;;;6177288;23;20175;-90
2023/08/25 12:54:20;;;;;;;7.47;2.60;;;;;;;;;;6181574;23;20179;-92
2023/08/25 12:57:25;;;;;;;10.02;2.92;;;;;;;;;;6183187;23;20166;-89
2023/08/25 13:00:30;;;;;;;6.13;2.42;;;;;;;;;;6181044;23;20202;-90
2023/08/25 13:03:35;;;;;;;6.43;2.60;;;;;;;;;;6181623;23;20198;-89
2023/08/25 13:06:40;;;;;;;7.32;2.85;;;;;;;;;;6181942;23;20164;-90
2023/08/25 13:09:47;;;;;;;4.45;2.60;;;;;;;;;;6179153;23;20166;-89
2023/08/25 13:12:53;;;;;;;8.55;2.42;;;;;;;;;;6180229;23;20218;-93
2023/08/25 13:15:59;;;;;;;6.68;2.60;;;;;;;;;;6181823;23;20179;-90
2023/08/25 13:19:04;;;;;;;8.13;3.00;;;;;;;;;;6186427;23;20175;-90
2023/08/25 13:22:09;;;;;;;12.63;2.70;;;;;;;;;;6181430;23;20172;-91
2023/08/25 13:25:16;;;;;;;7.75;2.63;;;;;;;;;;6183066;23;20279;-89
2023/08/25 13:28:21;;;;;;;8.20;3.08;;;;;;;;;;6186010;23;20171;-91
2023/08/25 13:31:27;;;;;;;7.82;3.08;;;;;;;;;;6185423;23;20171;-90
2023/08/25 13:34:32;;;;;;;7.97;2.80;;;;;;;;;;6180021;23;20155;-91
2023/08/25 13:37:38;;;;;;;4.65;3.00;;;;;;;;;;6178998;23;20166;-90
2023/08/25 13:40:44;;;;;;;6.45;2.83;;;;;;;;;;6179566;23;20171;-90
2023/08/25 13:43:49;;;;;;;10.10;3.08;;;;;;;;;;6177763;23;20191;-91
2023/08/25 13:46:55;;;;;;;6.20;2.67;;;;;;;;;;6177617;23;20164;-89
2023/08/25 13:50:00;;;;;;;9.63;2.83;;;;;;;;;;6179050;23;20150;-90
2023/08/25 13:53:05;;;;;;;8.32;3.67;;;;;;;;;;6181935;23;20610;-88
2023/08/25 13:56:14;;;;;;;8.82;2.95;;;;;;;;;;6182622;23;20167;-91
2023/08/25 13:59:20;;;;;;;3.83;2.70;;;;;;;;;;6181215;23;20168;-91
2023/08/25 14:02:25;;;;;;;8.27;2.60;;;;;;;;;;6181970;23;20215;-90
2023/08/25 14:05:30;;;;;;;6.93;2.97;;;;;;;;;;6182402;23;20238;-91
2023/08/25 14:08:36;;;;;;;8.32;2.65;;;;;;;;;;6181812;23;20175;-90
2023/08/25 14:11:43;;;;;;;7.07;2.92;;;;;;;;;;6180848;23;20168;-90
2023/08/25 14:14:50;;;;;;;10.85;2.90;;;;;;;;;;6182468;23;20168;-91
2023/08/25 14:17:55;;;;;;;7.85;3.10;;;;;;;;;;6182110;23;20167;-91
2023/08/25 14:21:01;;;;;;;11.65;3.08;;;;;;;;;;6180857;23;20414;-89
2023/08/25 14:24:06;;;;;;;6.00;3.00;;;;;;;;;;6182270;23;20274;-92
2023/08/25 14:27:13;;;;;;;5.97;2.78;;;;;;;;;;6187690;23;20166;-90
2023/08/25 14:30:18;;;;;;;3.65;2.70;;;;;;;;;;6181916;23;20178;-89
2023/08/25 14:33:23;;;;;;;10.77;3.28;;;;;;;;;;6187203;23;20190;-91
2023/08/25 14:36:28;;;;;;;8.82;2.85;;;;;;;;;;6187835;23;20182;-90
2023/08/25 14:39:34;;;;;;;5.65;2.90;;;;;;;;;;6189781;23;20200;-91
2023/08/25 14:42:42;;;;;;;10.18;3.17;;;;;;;;;;6187592;23;20179;-91
2023/08/25 14:45:47;;;;;;;8.20;2.65;;;;;;;;;;6188116;23;20170;-90
2023/08/25 14:48:52;;;;;;;6.90;2.80;;;;;;;;;;6187205;23;20154;-89
2023/08/25 14:51:58;;;;;;;10.63;2.83;;;;;;;;;;6187147;23;20163;-90
2023/08/25 14:55:03;;;;;;;5.75;2.90;;;;;;;;;;6188129;23;20172;-91
2023/08/25 14:58:10;;;;;;;10.32;3.03;;;;;;;;;;6187514;23;20171;-90
2023/08/25 15:01:15;;;;;;;6.47;2.97;;;;;;;;;;6205882;23;20150;-90
2023/08/25 15:04:21;;;;;;;7.97;3.15;;;;;;;;;;6196904;23;20201;-91
2023/08/25 15:07:26;;;;;;;5.53;2.78;;;;;;;;;;6204990;23;20223;-91
2023/08/25 15:10:32;;;;;;;8.43;3.17;;;;;;;;;;6205198;23;20151;-88
2023/08/25 15:13:39;;;;;;;12.73;4.30;;;;;;;;;;6203768;23;20187;-92
2023/08/25 15:16:45;;;;;;;9.40;2.92;;;;;;;;;;6203427;23;20162;-90
2023/08/25 15:19:50;;;;;;;6.03;2.55;;;;;;;;;;6204196;23;20171;-90
2023/08/25 15:22:56;;;;;;;9.45;2.60;;;;;;;;;;6204821;23;20171;-91
2023/08/25 15:26:02;;;;;;;6.28;2.67;;;;;;;;;;6203613;23;20172;-89
2023/08/25 15:29:10;;;;;;;9.23;4.65;;;;;;;;;;6203844;23;20215;-91
2023/08/25 15:32:18;;;;;;;6.20;2.92;;;;;;;;;;6204097;23;20167;-89
2023/08/25 15:35:25;;;;;;;5.68;2.40;;;;;;;;;;6204533;23;20172;-90
2023/08/25 15:38:30;;;;;;;5.40;2.60;;;;;;;;;;6204167;23;20492;-90
2023/08/25 15:41:35;;;;;;;7.63;2.30;;;;;;;;;;6203035;23;20213;-90
2023/08/25 15:44:42;;;;;;;6.07;2.50;;;;;;;;;;6203980;23;20210;-89
2023/08/25 15:47:49;;;;;;;6.00;2.63;;;;;;;;;;6203310;23;20206;-89
2023/08/25 15:50:54;;;;;;;8.98;4.03;;;;;;;;;;6203872;23;20167;-90
2023/08/25 15:53:59;;;;;;;9.32;3.30;;;;;;;;;;6200962;23;20507;-92
2023/08/25 15:57:05;;;;;;;4.90;2.85;;;;;;;;;;6196858;23;20163;-92
2023/08/25 16:00:13;;;;;;;5.13;2.70;;;;;;;;;;6197249;23;20167;-90
2023/08/25 16:03:18;;;;;;;10.70;3.03;;;;;;;;;;6198650;23;20228;-92
2023/08/25 16:06:24;;;;;;;14.20;3.40;;;;;;;;;;6179748;23;20226;-88
2023/08/25 16:09:29;;;;;;;7.85;2.88;;;;;;;;;;6179845;23;20614;-92
2023/08/25 16:12:35;;;;;;;7.60;2.80;;;;;;;;;;6178960;23;20597;-91
2023/08/25 16:15:42;;;;;;;11.73;2.92;;;;;;;;;;6178409;23;20167;-91
2023/08/25 16:18:47;;;;;;;9.52;3.10;;;;;;;;;;6178865;23;20155;-93
2023/08/25 16:21:53;;;;;;;6.55;2.67;;;;;;;;;;6177057;23;20180;-88
2023/08/25 16:24:59;;;;;;;7.22;2.78;;;;;;;;;;6180089;23;20195;-90
2023/08/25 16:28:04;;;;;;;7.40;3.08;;;;;;;;;;6180680;23;20187;-92
2023/08/25 16:31:12;;;;;;;8.60;3.75;;;;;;;;;;6178167;23;20168;-91
2023/08/25 16:34:18;;;;;;;10.32;3.63;;;;;;;;;;6180544;23;20276;-90
2023/08/25 16:37:22;;;;;;;9.88;3.38;;;;;;;;;;6179323;23;20223;-89
2023/08/25 16:40:27;;;;;;;8.32;3.67;;;;;;;;;;6179201;23;20174;-90
2023/08/25 16:43:32;;;;;;;7.07;3.80;;;;;;;;;;6179024;23;20596;-91
2023/08/25 16:46:39;;;;;;;5.32;3.30;;;;;;;;;;6177001;23;20163;-91
2023/08/25 16:49:45;;;;;;;5.93;3.28;;;;;;;;;;6179717;23;20152;-89
2023/08/25 16:52:50;;;;;;;12.98;4.07;;;;;;;;;;6177654;23;20168;-89
2023/08/25 16:55:55;;;;;;;9.52;4.15;;;;;;;;;;6178472;23;20168;-90
2023/08/25 16:59:00;;;;;;;12.85;5.60;;;;;;;;;;6178754;23;20619;-91
2023/08/25 17:02:07;;;;;;;12.10;5.35;;;;;;;;;;6178006;23;20232;-90
2023/08/25 17:05:12;;;;;;;7.60;4.03;;;;;;;;;;6186056;23;20175;-91
2023/08/25 17:08:17;;;;;;;12.77;4.45;;;;;;;;;;6184735;23;20168;-89
2023/08/25 17:11:23;;;;;;;11.70;4.82;;;;;;;;;;6187530;23;20192;-90
2023/08/25 17:14:28;;;;;;;11.35;4.57;;;;;;;;;;6186091;23;20171;-89
2023/08/25 17:17:39;;;;;;;14.98;4.80;;;;;;;;;;6184830;23;20176;-90
2023/08/25 17:20:44;;;;;;;12.77;5.00;;;;;;;;;;6186509;23;20238;-92
2023/08/25 17:23:54;;;;;;;12.07;5.07;;;;;;;;;;6185439;23;20167;-92
2023/08/25 17:26:59;;;;;;;10.07;4.85;;;;;;;;;;6185725;23;20167;-90
2023/08/25 17:30:05;;;;;;;9.70;4.60;;;;;;;;;;6186462;23;20166;-90
2023/08/25 17:33:12;;;;;;;7.65;5.05;;;;;;;;;;6186909;23;20250;-88
2023/08/25 17:36:17;;;;;;;12.00;5.72;;;;;;;;;;6187185;23;20192;-89
2023/08/25 17:39:23;;;;;;;14.32;6.80;;;;;;;;;;6188821;23;20167;-89
2023/08/25 17:42:28;;;;;;;13.95;5.43;;;;;;;;;;6186761;23;20194;-89
2023/08/25 17:45:34;;;;;;;11.50;5.15;;;;;;;;;;6187015;23;20743;-91
2023/08/25 17:48:42;;;;;;;7.32;4.47;;;;;;;;;;6186104;23;20168;-90
2023/08/25 17:51:48;;;;;;;7.95;4.47;;;;;;;;;;6187548;23;20187;-88
2023/08/25 17:54:54;;;;;;;9.45;4.97;;;;;;;;;;6188136;23;20221;-89
2023/08/25 17:58:00;;;;;;;7.88;4.68;;;;;;;;;;6187311;23;20168;-88
2023/08/25 18:01:06;;;;;;;10.82;5.03;;;;;;;;;;6186229;23;20493;-91
2023/08/25 18:04:14;;;;;;;9.52;4.78;;;;;;;;;;6185931;23;20195;-90
2023/08/25 18:07:19;;;;;;;8.13;4.80;;;;;;;;;;6185069;23;20170;-88
2023/08/25 18:10:25;;;;;;;9.93;4.80;;;;;;;;;;6185751;23;20160;-87
2023/08/25 18:13:33;;;;;;;9.90;4.95;;;;;;;;;;6184844;23;20242;-90
2023/08/25 18:16:38;;;;;;;7.10;4.65;;;;;;;;;;6184871;23;20179;-88
2023/08/25 18:19:44;;;;;;;13.57;5.25;;;;;;;;;;6186574;23;20155;-88
2023/08/25 18:22:50;;;;;;;11.85;5.60;;;;;;;;;;6185329;23;20167;-90
2023/08/25 18:25:56;;;;;;;14.25;5.47;;;;;;;;;;6187003;23;20207;-88
2023/08/25 18:29:02;;;;;;;9.20;5.45;;;;;;;;;;6187206;23;20235;-89
2023/08/25 18:32:08;;;;;;;8.85;5.88;;;;;;;;;;6185329;23;20219;-88
2023/08/25 18:35:14;;;;;;;12.80;5.72;;;;;;;;;;6184734;23;20208;-88
2023/08/25 18:38:20;;;;;;;14.02;5.80;;;;;;;;;;6185367;23;20168;-89
2023/08/25 18:41:26;;;;;;;9.48;6.25;;;;;;;;;;6186193;23;20148;-88